Portada
METAR-TAF:

METAR-TAF

Aeroports :

Islamabad, Pakistan

latitud: 33-32-57N, longitud: 072-49-32E, altitud: 537 m

Observació

L'informe es va fer fa 34 minuts, a les 15:00 UTC
Vent 6 kt del Nord-Est
Temperatura 32°C
Humitat 24%
Pressió 1003 hPa
Visibilitat: 7000 m
Escasses núvols a una alçada de 4000 ft

METAR: OPIS 251500Z 05006KT 7000 FEW040 32/09 Q1003 NOSIG

Hora: 20:34 (15:34 UTC)

Pronòstic

L'informe es va fer fa 6 hores i 4 minuts, a les 09:30 UTC
Pronòstic vàlid del 25 a les 12 UTC al 26 a les 18 UTC
Vent 6 kt del Sud-Oest
Visibilitat: 6000 m
Temporalment
l' 26 a les 06 UTC al 26 a les 12 UTC
Vent 15 kt del Nord-Oest amb ràfegues de 25 kt
Visibilitat: 8000 m
Escasses núvols a una alçada de 4000 ft

TAF: OPIS 250930Z 2512/2618 23006KT 6000 NSC TEMPO 2606/2612 31015G25KT 8000 FEW040

Observacions i pronòstics meteorològics de més de 4000 aeroports (METAR i TAF).

Les estacions disponibles són els punts grocs i vermells al mapa.

Posi el ratolí al punt desitjat per veure el nom de l'estació.

Feu clic per veure les observacions i els pronòstics meteorològics.

Per canviar el mapa: feu clic els botons verds amb una creu de color negre per apropar; al botó verd amb un guió per allunyar la imatge; o en les fletxes verdes per a mapes adjacents.


METAR-TAF: